Time;durP1;ratioP1;P1;durP2;ratioP2;P2;SDS_P1;SDS_P2;PMS_P1;PMS_P2;Temp;Humidity;BMP_temperature;BMP_pressure;BME280_temperature;BME280_humidity;BME280_pressure;Samples;Min_cycle;Max_cycle;Signal;HPM_P1;HPM_P2
2021/05/14 00:02:24;;;;;;;0.20;0.10;;;23.70;48.70;;;;;;4993064;28;20407;-72
2021/05/14 00:04:51;;;;;;;0.30;0.10;;;23.80;50.20;;;;;;4991139;28;20021;-72
2021/05/14 00:07:19;;;;;;;1.40;0.20;;;24.00;50.10;;;;;;4992551;28;20050;-72
2021/05/14 00:09:46;;;;;;;0.10;0.10;;;24.00;48.60;;;;;;4995078;28;20427;-73
2021/05/14 00:12:13;;;;;;;0.40;0.10;;;23.90;50.90;;;;;;4992108;28;20054;-72
2021/05/14 00:14:41;;;;;;;0.10;0.10;;;24.70;50.50;;;;;;4988069;28;20766;-72
2021/05/14 00:17:08;;;;;;;0.25;0.10;;;25.30;49.60;;;;;;4995870;28;20030;-71
2021/05/14 00:19:36;;;;;;;0.20;0.13;;;25.50;46.30;;;;;;4994331;28;20025;-72
2021/05/14 00:22:03;;;;;;;0.32;0.03;;;25.30;45.80;;;;;;4995387;28;20067;-71
2021/05/14 00:24:31;;;;;;;0.20;0.10;;;25.30;43.60;;;;;;4987498;28;20517;-74
2021/05/14 00:26:58;;;;;;;0.63;0.10;;;25.20;41.30;;;;;;4998523;28;20423;-72
2021/05/14 00:29:26;;;;;;;1.40;0.50;;;24.90;39.20;;;;;;4995543;28;20022;-73
2021/05/14 00:31:54;;;;;;;0.32;0.10;;;24.60;41.50;;;;;;4990746;28;20133;-73
2021/05/14 00:34:22;;;;;;;0.52;0.10;;;25.00;41.80;;;;;;4989383;28;20034;-74
2021/05/14 00:36:49;;;;;;;0.28;0.10;;;24.90;39.80;;;;;;4992744;28;20027;-73
2021/05/14 00:39:17;;;;;;;0.22;0.10;;;25.20;42.40;;;;;;4996110;28;20034;-73
2021/05/14 00:41:44;;;;;;;0.85;0.10;;;25.20;38.40;;;;;;4997491;28;20033;-73
2021/05/14 00:44:33;;;;;;;1.15;0.10;;;25.00;39.70;;;;;;4984892;28;20027;-73
2021/05/14 00:47:05;;;;;;;0.20;0.00;;;25.40;40.10;;;;;;4988594;28;20037;-74
2021/05/14 00:49:33;;;;;;;0.03;0.03;;;25.60;40.20;;;;;;4970788;28;20061;-74
2021/05/14 00:52:00;;;;;;;1.02;0.08;;;25.90;35.80;;;;;;4996274;28;20037;-74
2021/05/14 00:54:29;;;;;;;0.32;0.10;;;25.20;37.40;;;;;;4979895;28;20440;-74
2021/05/14 00:56:58;;;;;;;0.20;0.10;;;25.40;35.40;;;;;;5002304;28;20034;-73
2021/05/14 00:59:26;;;;;;;0.40;0.20;;;25.20;36.60;;;;;;4987888;28;20041;-74
2021/05/14 01:01:54;;;;;;;0.45;0.10;;;25.60;34.40;;;;;;4991703;28;20051;-74
2021/05/14 01:04:21;;;;;;;0.20;0.10;;;25.70;34.70;;;;;;5005184;28;20131;-73
2021/05/14 01:06:49;;;;;;;0.08;0.00;;;25.90;37.00;;;;;;4987744;28;20042;-73
2021/05/14 01:09:16;;;;;;;0.10;0.10;;;26.00;35.70;;;;;;4985696;28;20481;-74
2021/05/14 01:11:44;;;;;;;1.77;0.10;;;26.50;34.10;;;;;;4985610;28;20121;-73
2021/05/14 01:14:12;;;;;;;1.17;0.20;;;26.20;34.60;;;;;;4985544;28;20769;-73
2021/05/14 01:16:39;;;;;;;1.30;0.10;;;26.10;34.00;;;;;;4991020;28;20081;-73
2021/05/14 01:19:07;;;;;;;0.28;0.10;;;26.20;32.40;;;;;;4992587;28;20042;-79
2021/05/14 01:21:36;;;;;;;0.20;0.10;;;25.90;33.20;;;;;;4993120;28;20424;-79
2021/05/14 01:24:04;;;;;;;1.38;0.30;;;26.00;34.90;;;;;;4992330;28;20145;-78
2021/05/14 01:26:32;;;;;;;1.55;0.10;;;26.20;34.30;;;;;;4992054;28;20094;-78
2021/05/14 01:29:01;;;;;;;0.20;0.10;;;26.40;36.30;;;;;;4994738;28;20044;-80
2021/05/14 01:31:28;;;;;;;1.27;0.10;;;25.90;32.80;;;;;;4988035;28;20022;-76
2021/05/14 01:33:56;;;;;;;0.10;0.00;;;26.10;34.60;;;;;;4995130;28;20112;-77
2021/05/14 01:36:24;;;;;;;0.10;0.08;;;25.60;34.90;;;;;;4993455;28;20027;-76
2021/05/14 01:38:51;;;;;;;0.10;0.10;;;26.30;35.80;;;;;;4992259;28;20056;-77
2021/05/14 01:41:18;;;;;;;0.05;0.00;;;26.60;34.60;;;;;;4994884;28;20056;-76
2021/05/14 01:43:46;;;;;;;0.10;0.10;;;26.40;35.50;;;;;;4987500;28;20124;-76
2021/05/14 01:46:13;;;;;;;1.92;0.20;;;26.80;35.20;;;;;;4984862;28;20046;-76
2021/05/14 01:48:41;;;;;;;0.13;0.10;;;27.10;34.60;;;;;;4995716;28;20030;-76
2021/05/14 01:51:19;;;;;;;0.30;0.10;;;27.20;35.60;;;;;;4990097;28;20045;-76
2021/05/14 01:53:47;;;;;;;1.38;0.00;;;27.10;32.30;;;;;;4993452;28;20026;-77
2021/05/14 01:56:15;;;;;;;0.32;0.25;;;26.60;35.50;;;;;;4990169;28;20036;-75
2021/05/14 01:58:42;;;;;;;21.55;2.45;;;26.40;33.40;;;;;;4994899;28;20029;-75
2021/05/14 02:01:10;;;;;;;6.85;0.63;;;27.10;35.80;;;;;;4993968;28;20040;-75
2021/05/14 02:03:37;;;;;;;2.10;0.10;;;27.20;34.60;;;;;;4991699;28;20042;-76
2021/05/14 02:06:05;;;;;;;8.65;1.05;;;27.00;33.70;;;;;;4990639;28;20058;-78
2021/05/14 02:08:32;;;;;;;4.25;0.40;;;26.90;35.90;;;;;;4992556;28;20041;-76
2021/05/14 02:11:00;;;;;;;63.95;6.88;;;27.20;35.60;;;;;;4989754;28;20038;-77
2021/05/14 02:13:27;;;;;;;28.73;3.50;;;26.80;34.40;;;;;;4991522;28;20362;-78
2021/05/14 02:15:55;;;;;;;19.88;3.17;;;26.80;35.90;;;;;;4988366;28;20034;-77
2021/05/14 02:18:22;;;;;;;11.93;0.40;;;26.30;34.10;;;;;;4987256;28;20290;-77
2021/05/14 02:20:50;;;;;;;8.05;0.73;;;26.30;34.40;;;;;;4992488;28;20030;-76
2021/05/14 02:23:17;;;;;;;9.18;1.10;;;26.20;37.70;;;;;;4997929;28;20049;-77
2021/05/14 02:25:44;;;;;;;2.63;0.28;;;26.00;35.70;;;;;;4990650;28;20058;-77
2021/05/14 02:28:12;;;;;;;0.57;0.10;;;26.20;35.00;;;;;;4997736;28;20477;-78
2021/05/14 02:30:39;;;;;;;34.88;4.22;;;26.30;35.30;;;;;;4991317;28;20030;-79
2021/05/14 02:33:07;;;;;;;1.33;0.32;;;26.40;34.60;;;;;;4989954;28;20025;-76
2021/05/14 02:35:36;;;;;;;0.88;0.20;;;25.80;34.80;;;;;;4992360;28;20027;-76
2021/05/14 02:38:04;;;;;;;66.80;5.65;;;25.70;35.80;;;;;;4986849;28;20058;-76
2021/05/14 02:40:32;;;;;;;0.55;0.10;;;25.50;35.00;;;;;;4988803;28;20031;-75
2021/05/14 02:43:01;;;;;;;0.82;0.00;;;25.90;35.90;;;;;;4992967;28;20034;-77
2021/05/14 02:45:28;;;;;;;0.28;0.10;;;25.90;35.80;;;;;;4989587;28;20374;-77
2021/05/14 02:47:56;;;;;;;0.30;0.10;;;25.60;35.90;;;;;;4990619;28;20035;-78
2021/05/14 02:50:25;;;;;;;1.63;0.10;;;25.70;36.30;;;;;;4990257;28;20152;-77
2021/05/14 02:52:53;;;;;;;0.98;0.00;;;26.00;37.20;;;;;;4990404;28;20041;-77
2021/05/14 02:55:20;;;;;;;0.00;0.00;;;26.10;36.30;;;;;;4989667;28;20030;-77
2021/05/14 02:57:48;;;;;;;0.70;0.10;;;26.50;37.10;;;;;;4988455;28;20031;-78
2021/05/14 03:00:17;;;;;;;0.68;0.10;;;26.40;40.00;;;;;;4990760;28;20031;-78
2021/05/14 03:02:44;;;;;;;0.57;0.08;;;26.40;36.70;;;;;;4995499;28;20041;-77
2021/05/14 03:05:12;;;;;;;0.55;0.55;;;26.60;34.60;;;;;;4986251;28;20027;-76
2021/05/14 03:07:39;;;;;;;0.43;0.00;;;26.30;34.40;;;;;;4988481;28;20039;-76
2021/05/14 03:10:08;;;;;;;0.05;0.00;;;26.00;35.80;;;;;;4984985;28;20097;-76
2021/05/14 03:12:35;;;;;;;0.00;0.00;;;25.90;36.10;;;;;;4990665;28;20031;-76
2021/05/14 03:15:04;;;;;;;0.32;0.22;;;26.00;35.40;;;;;;4986754;28;20113;-75
2021/05/14 03:17:31;;;;;;;0.30;0.00;;;25.60;36.40;;;;;;5001199;28;20412;-76
2021/05/14 03:19:59;;;;;;;0.10;0.00;;;25.40;34.60;;;;;;4996482;28;20113;-76
2021/05/14 03:22:26;;;;;;;0.28;0.00;;;25.40;38.20;;;;;;4997566;28;20114;-76
2021/05/14 03:24:54;;;;;;;0.00;0.00;;;25.60;36.50;;;;;;4994426;28;20378;-76
2021/05/14 03:27:21;;;;;;;0.25;0.00;;;25.20;37.10;;;;;;4998425;28;20034;-76
2021/05/14 03:29:48;;;;;;;0.43;0.00;;;25.10;40.90;;;;;;4995264;28;20034;-76
2021/05/14 03:32:16;;;;;;;0.15;0.00;;;25.00;37.00;;;;;;4995280;28;20029;-75
2021/05/14 03:34:43;;;;;;;0.00;0.00;;;24.50;37.60;;;;;;5002113;28;20122;-75
2021/05/14 03:37:10;;;;;;;0.60;0.00;;;24.10;37.40;;;;;;4996721;28;20030;-76
2021/05/14 03:39:43;;;;;;;0.13;0.00;;;23.70;38.10;;;;;;5003472;28;20022;-76
2021/05/14 03:42:28;;;;;;;0.03;0.00;;;23.30;38.70;;;;;;4998571;28;20559;-76
2021/05/14 03:44:56;;;;;;;0.43;0.05;;;22.80;40.40;;;;;;5002258;28;20117;-75
2021/05/14 03:47:25;;;;;;;0.15;0.08;;;22.40;40.70;;;;;;5004676;28;20472;-74
2021/05/14 03:49:52;;;;;;;0.60;0.17;;;22.20;40.70;;;;;;4988009;28;20058;-75
2021/05/14 03:52:19;;;;;;;0.08;0.00;;;22.00;40.80;;;;;;4999352;28;20044;-75
2021/05/14 03:54:47;;;;;;;0.10;0.10;;;21.90;41.10;;;;;;4987525;28;20072;-76
2021/05/14 03:57:14;;;;;;;0.10;0.00;;;21.90;41.90;;;;;;4998478;28;20394;-75
2021/05/14 03:59:42;;;;;;;0.65;0.60;;;21.80;41.10;;;;;;4999623;28;22133;-76
2021/05/14 04:02:10;;;;;;;0.10;0.00;;;21.80;41.60;;;;;;4998224;28;20053;-76
2021/05/14 04:04:37;;;;;;;0.40;0.10;;;21.50;41.90;;;;;;4995014;28;20081;-77
2021/05/14 04:07:06;;;;;;;0.00;0.00;;;21.30;43.40;;;;;;4996238;28;20057;-76
2021/05/14 04:09:36;;;;;;;0.25;0.00;;;21.00;43.60;;;;;;4994695;28;20038;-76
2021/05/14 04:14:49;;;;;;;0.28;0.10;;;20.70;45.60;;;;;;4988887;28;20036;-76
2021/05/14 04:17:16;;;;;;;0.43;0.40;;;20.60;44.30;;;;;;4970753;28;20046;-76
2021/05/14 04:19:44;;;;;;;0.10;0.10;;;20.60;44.50;;;;;;4994935;28;20091;-73
2021/05/14 04:22:11;;;;;;;0.15;0.15;;;20.60;45.70;;;;;;4995128;28;20038;-73
2021/05/14 04:24:39;;;;;;;0.22;0.03;;;20.70;44.20;;;;;;4996995;28;20037;-71
2021/05/14 04:27:07;;;;;;;0.10;0.00;;;20.60;44.30;;;;;;4993632;28;20104;-72
2021/05/14 04:29:34;;;;;;;0.10;0.00;;;20.60;44.30;;;;;;4991429;28;20103;-73
2021/05/14 04:32:02;;;;;;;0.60;0.10;;;20.60;45.70;;;;;;4991375;28;20029;-73
2021/05/14 04:34:29;;;;;;;0.45;0.00;;;20.60;44.30;;;;;;4985432;28;20022;-73
2021/05/14 04:36:57;;;;;;;0.40;0.10;;;20.50;44.60;;;;;;4996170;28;20033;-72
2021/05/14 04:39:24;;;;;;;0.20;0.00;;;20.40;45.50;;;;;;4997165;28;20080;-73
2021/05/14 04:41:52;;;;;;;0.80;0.00;;;20.30;45.80;;;;;;4980502;28;20053;-72
2021/05/14 04:44:19;;;;;;;0.35;0.10;;;20.30;45.40;;;;;;4988445;28;20057;-73
2021/05/14 04:46:47;;;;;;;2.35;0.10;;;20.20;45.50;;;;;;4986232;28;20026;-72
2021/05/14 04:49:14;;;;;;;0.47;0.08;;;20.20;46.20;;;;;;4993716;28;20062;-73
2021/05/14 04:51:41;;;;;;;1.90;0.10;;;20.10;45.90;;;;;;4993298;28;20157;-73
2021/05/14 04:54:09;;;;;;;0.20;0.10;;;20.00;46.50;;;;;;4990086;28;20504;-73
2021/05/14 04:56:37;;;;;;;0.10;0.10;;;20.00;45.80;;;;;;4999705;28;20121;-73
2021/05/14 04:59:04;;;;;;;1.85;0.10;;;20.00;46.40;;;;;;4994957;28;20045;-73
2021/05/14 05:01:32;;;;;;;0.28;0.00;;;20.10;46.40;;;;;;4992310;28;20076;-73
2021/05/14 05:03:59;;;;;;;0.63;0.10;;;20.10;45.60;;;;;;4986292;28;20042;-73
2021/05/14 05:06:27;;;;;;;0.93;0.10;;;19.90;44.20;;;;;;4986451;28;20031;-73
2021/05/14 05:08:54;;;;;;;0.00;0.00;;;19.90;44.40;;;;;;4988553;28;20029;-73
2021/05/14 05:11:22;;;;;;;0.00;0.00;;;19.80;43.90;;;;;;4993795;28;20137;-72
2021/05/14 05:13:49;;;;;;;0.20;0.10;;;19.90;43.60;;;;;;4991830;28;20109;-72
2021/05/14 05:16:17;;;;;;;0.00;0.00;;;19.90;44.10;;;;;;4988930;28;20057;-75
2021/05/14 05:18:44;;;;;;;3.53;0.40;;;19.90;41.60;;;;;;4993699;28;20038;-71
2021/05/14 05:21:11;;;;;;;0.10;0.10;;;19.90;42.40;;;;;;4993820;28;20105;-73
2021/05/14 05:23:39;;;;;;;0.00;0.00;;;19.90;43.10;;;;;;4996742;28;20133;-74
2021/05/14 05:26:06;;;;;;;0.20;0.00;;;19.90;43.40;;;;;;4993692;28;20030;-73
2021/05/14 05:28:33;;;;;;;0.30;0.00;;;19.80;44.60;;;;;;4990237;28;20053;-74
2021/05/14 05:31:01;;;;;;;0.03;0.00;;;19.80;45.70;;;;;;4990898;28;20054;-73
2021/05/14 05:33:28;;;;;;;1.13;0.10;;;20.00;45.10;;;;;;4990849;28;20018;-72
2021/05/14 05:35:56;;;;;;;79.38;12.02;;;20.00;43.20;;;;;;4993008;28;20085;-72
2021/05/14 05:38:25;;;;;;;0.73;0.45;;;20.00;44.60;;;;;;4989510;28;20202;-72
2021/05/14 05:40:52;;;;;;;1.00;0.10;;;20.00;43.40;;;;;;4988713;28;20034;-72
2021/05/14 05:43:20;;;;;;;0.50;0.05;;;20.10;44.50;;;;;;4986814;28;20041;-72
2021/05/14 05:45:48;;;;;;;1.13;0.10;;;20.10;43.60;;;;;;4990206;28;20053;-71
2021/05/14 05:48:15;;;;;;;1.88;0.57;;;20.10;44.50;;;;;;4993932;28;20040;-72
2021/05/14 05:50:43;;;;;;;5.28;0.52;;;20.30;43.90;;;;;;4993770;28;20050;-72
2021/05/14 05:53:11;;;;;;;3.72;0.68;;;20.30;44.40;;;;;;4993515;28;20115;-72
2021/05/14 05:55:39;;;;;;;1.42;0.20;;;20.30;45.10;;;;;;4990023;28;21010;-72
2021/05/14 05:58:11;;;;;;;4.32;0.30;;;20.30;44.60;;;;;;4996638;28;20553;-73
2021/05/14 06:00:39;;;;;;;0.70;0.10;;;20.20;45.00;;;;;;4993177;28;20381;-73
2021/05/14 06:03:09;;;;;;;1.77;0.22;;;20.20;45.20;;;;;;4989863;28;20108;-71
2021/05/14 06:05:38;;;;;;;1.58;0.10;;;20.10;45.50;;;;;;4991847;28;20538;-72
2021/05/14 06:08:06;;;;;;;0.15;0.05;;;20.10;45.10;;;;;;4995309;28;20071;-72
2021/05/14 06:10:34;;;;;;;1.08;0.10;;;20.10;45.40;;;;;;4992703;28;20034;-73
2021/05/14 06:13:01;;;;;;;0.50;0.10;;;19.90;46.50;;;;;;4988244;28;20045;-73
2021/05/14 06:15:29;;;;;;;0.60;0.10;;;19.90;47.10;;;;;;4989098;28;20041;-74
2021/05/14 06:17:56;;;;;;;0.10;0.08;;;19.80;48.30;;;;;;4993018;28;20030;-73
2021/05/14 06:20:25;;;;;;;0.77;0.10;;;19.90;47.90;;;;;;4990737;28;20129;-71
2021/05/14 06:22:53;;;;;;;0.75;0.20;;;19.90;48.20;;;;;;4994316;28;20042;-72
2021/05/14 06:25:20;;;;;;;0.80;0.22;;;19.70;48.60;;;;;;4988822;28;20410;-73
2021/05/14 06:27:50;;;;;;;0.25;0.10;;;19.70;49.20;;;;;;4993393;28;20097;-72
2021/05/14 06:30:19;;;;;;;1.48;0.10;;;19.50;49.20;;;;;;4991481;28;20040;-73
2021/05/14 06:32:47;;;;;;;0.80;0.10;;;19.30;50.80;;;;;;4990730;28;20025;-72
2021/05/14 06:35:14;;;;;;;0.38;0.20;;;19.10;51.50;;;;;;4991131;28;20468;-71
2021/05/14 06:37:44;;;;;;;0.40;0.15;;;18.90;51.90;;;;;;4991048;28;20031;-71
2021/05/14 06:40:11;;;;;;;1.67;0.35;;;18.70;51.50;;;;;;4985749;28;20030;-71
2021/05/14 06:42:39;;;;;;;1.60;0.25;;;18.40;53.00;;;;;;4993801;28;20065;-72
2021/05/14 06:45:07;;;;;;;0.77;0.30;;;18.30;53.10;;;;;;4986745;28;20389;-77
2021/05/14 06:47:35;;;;;;;2.50;0.13;;;18.10;52.90;;;;;;4984268;28;20045;-77
2021/05/14 06:50:05;;;;;;;2.05;0.30;;;17.90;52.30;;;;;;4991197;28;20458;-75
2021/05/14 06:52:34;;;;;;;1.50;0.20;;;17.70;52.30;;;;;;4988204;28;20054;-78
2021/05/14 06:55:05;;;;;;;0.57;0.08;;;17.50;52.90;;;;;;4988366;28;20071;-77
2021/05/14 06:57:32;;;;;;;1.52;0.25;;;17.40;53.30;;;;;;4996526;28;20122;-77
2021/05/14 06:59:59;;;;;;;0.95;0.10;;;17.20;54.30;;;;;;4997538;28;20026;-77
2021/05/14 07:02:27;;;;;;;0.63;0.20;;;17.10;55.00;;;;;;5000852;28;20583;-76
2021/05/14 07:04:54;;;;;;;0.32;0.17;;;17.00;55.00;;;;;;4990748;28;20042;-78
2021/05/14 07:07:22;;;;;;;1.65;0.20;;;16.80;55.10;;;;;;4997253;28;20087;-77
2021/05/14 07:09:49;;;;;;;2.17;0.30;;;16.80;55.10;;;;;;4987329;28;20492;-77
2021/05/14 07:12:17;;;;;;;1.63;0.13;;;16.70;56.30;;;;;;4998576;28;20630;-76
2021/05/14 07:14:44;;;;;;;1.85;0.20;;;16.60;56.60;;;;;;4994666;28;20141;-76
2021/05/14 07:17:12;;;;;;;3.05;0.20;;;16.60;56.60;;;;;;4999563;28;20022;-74
2021/05/14 07:19:39;;;;;;;1.73;0.20;;;16.40;56.40;;;;;;4992816;28;20686;-78
2021/05/14 07:22:07;;;;;;;1.77;0.17;;;16.30;57.30;;;;;;5000787;28;20027;-79
2021/05/14 07:24:34;;;;;;;1.83;0.20;;;16.30;57.50;;;;;;4994912;28;20037;-76
2021/05/14 07:27:01;;;;;;;1.13;0.20;;;16.20;57.60;;;;;;4991015;28;20034;-76
2021/05/14 07:29:29;;;;;;;0.70;0.20;;;16.10;58.40;;;;;;5000276;28;20030;-75
2021/05/14 07:31:56;;;;;;;2.80;0.22;;;16.10;58.10;;;;;;4999785;28;20169;-76
2021/05/14 07:34:24;;;;;;;0.45;0.15;;;16.00;58.30;;;;;;5000249;28;20091;-77
2021/05/14 07:36:51;;;;;;;3.65;0.85;;;16.00;59.40;;;;;;5001981;28;20030;-76
2021/05/14 07:39:18;;;;;;;0.82;0.35;;;15.80;59.60;;;;;;5002900;28;20172;-84
2021/05/14 07:41:46;;;;;;;3.22;0.55;;;15.80;60.00;;;;;;4996844;28;20405;-77
2021/05/14 07:44:13;;;;;;;2.30;0.50;;;15.70;60.30;;;;;;4992286;28;20094;-76
2021/05/14 07:46:41;;;;;;;1.67;0.55;;;15.70;60.90;;;;;;5001779;28;20038;-76
2021/05/14 07:49:08;;;;;;;2.58;0.55;;;15.60;61.00;;;;;;4998100;28;20039;-78
2021/05/14 07:51:35;;;;;;;1.98;0.80;;;15.50;61.20;;;;;;5002894;28;20125;-76
2021/05/14 07:54:03;;;;;;;4.57;1.05;;;15.50;61.80;;;;;;4992274;28;20170;-76
2021/05/14 07:56:30;;;;;;;1.40;0.60;;;15.40;62.20;;;;;;4998633;28;20041;-77
2021/05/14 07:58:58;;;;;;;2.75;0.70;;;15.30;62.60;;;;;;5001827;28;20072;-76
2021/05/14 08:01:25;;;;;;;0.93;0.50;;;15.20;63.30;;;;;;5004994;28;20476;-79
2021/05/14 08:03:54;;;;;;;1.10;0.60;;;15.20;63.00;;;;;;5001323;28;20140;-76
2021/05/14 08:06:22;;;;;;;1.67;0.30;;;15.10;63.10;;;;;;4992092;28;20045;-77
2021/05/14 08:08:49;;;;;;;3.20;0.80;;;15.00;63.30;;;;;;4999094;28;20460;-76
2021/05/14 08:11:17;;;;;;;1.77;0.70;;;15.00;63.20;;;;;;5004025;28;20046;-78
2021/05/14 08:13:45;;;;;;;3.90;1.10;;;14.90;63.70;;;;;;4999804;28;20073;-77
2021/05/14 08:16:13;;;;;;;3.25;0.90;;;14.80;63.80;;;;;;4997083;28;20460;-76
2021/05/14 08:18:40;;;;;;;1.40;0.50;;;14.80;64.50;;;;;;4989477;28;20057;-78
2021/05/14 08:21:08;;;;;;;1.33;0.40;;;14.70;64.50;;;;;;4996451;28;20034;-78
2021/05/14 08:23:35;;;;;;;1.25;0.60;;;14.70;64.20;;;;;;4998332;28;20388;-79
2021/05/14 08:26:03;;;;;;;0.80;0.20;;;14.70;64.10;;;;;;4993187;28;20481;-77
2021/05/14 08:28:30;;;;;;;1.40;0.55;;;14.60;64.40;;;;;;4998534;28;20477;-78
2021/05/14 08:30:57;;;;;;;11.40;6.97;;;14.60;63.70;;;;;;4993787;28;20054;-78
2021/05/14 08:33:26;;;;;;;14.05;8.02;;;14.60;63.70;;;;;;4997022;28;20076;-78
2021/05/14 08:35:54;;;;;;;6.50;3.53;;;14.50;63.80;;;;;;5000213;28;20029;-78
2021/05/14 08:38:22;;;;;;;66.55;37.88;;;14.50;64.00;;;;;;4996539;28;21971;-78
2021/05/14 08:40:49;;;;;;;39.38;26.45;;;14.50;64.90;;;;;;4992838;28;20403;-77
2021/05/14 08:43:17;;;;;;;35.25;19.83;;;14.50;64.90;;;;;;4985087;28;20144;-78
2021/05/14 08:45:44;;;;;;;6.15;3.53;;;14.50;65.10;;;;;;4999999;28;20022;-78
2021/05/14 08:48:12;;;;;;;2.33;0.60;;;14.40;64.50;;;;;;4997281;28;20080;-77
2021/05/14 08:50:41;;;;;;;2.00;0.60;;;14.40;64.50;;;;;;4996118;28;20038;-78
2021/05/14 08:53:09;;;;;;;2.45;1.25;;;14.40;64.90;;;;;;4996297;28;20057;-77
2021/05/14 08:55:38;;;;;;;3.30;0.40;;;14.50;64.40;;;;;;4997358;28;20473;-78
2021/05/14 08:58:06;;;;;;;1.17;0.50;;;14.40;65.00;;;;;;4999143;28;20053;-79
2021/05/14 09:00:34;;;;;;;2.38;0.30;;;14.30;65.80;;;;;;4997629;28;20478;-77
2021/05/14 09:03:07;;;;;;;3.78;2.13;;;14.20;67.80;;;;;;4997119;28;20647;-76
2021/05/14 09:05:40;;;;;;;3.78;0.80;;;14.00;66.00;;;;;;4994226;28;20069;-78
2021/05/14 09:08:07;;;;;;;1.70;0.60;;;13.80;66.80;;;;;;5001725;28;20048;-78
2021/05/14 09:10:35;;;;;;;1.85;0.68;;;13.70;67.60;;;;;;4996504;28;20035;-77
2021/05/14 09:13:11;;;;;;;1.60;0.90;;;13.70;68.60;;;;;;4994124;28;20085;-80
2021/05/14 09:15:41;;;;;;;1.40;0.80;;;13.60;70.90;;;;;;4998148;28;20038;-80
2021/05/14 09:18:25;;;;;;;4.45;1.55;;;13.60;72.20;;;;;;4990955;28;20425;-80
2021/05/14 09:20:54;;;;;;;4.03;0.90;;;13.50;74.00;;;;;;4993372;28;20030;-80
2021/05/14 09:23:31;;;;;;;1.70;0.80;;;13.50;70.70;;;;;;5003276;28;20038;-77
2021/05/14 09:26:15;;;;;;;3.65;1.73;;;13.50;70.00;;;;;;4999207;28;20034;-78
2021/05/14 09:28:52;;;;;;;1.85;0.95;;;13.40;71.90;;;;;;5000850;28;20388;-78
2021/05/14 09:31:22;;;;;;;3.22;0.77;;;13.40;72.60;;;;;;4996646;28;20034;-80
2021/05/14 09:33:54;;;;;;;1.75;1.25;;;13.30;74.90;;;;;;4995058;28;20026;-79
2021/05/14 09:36:30;;;;;;;2.38;0.95;;;13.30;74.50;;;;;;4993676;28;20042;-79
2021/05/14 09:39:03;;;;;;;4.43;1.52;;;13.20;77.10;;;;;;4997649;28;20041;-79
2021/05/14 09:41:42;;;;;;;4.88;2.00;;;13.10;78.30;;;;;;4997051;28;20033;-78
2021/05/14 09:44:19;;;;;;;3.30;2.22;;;13.00;79.20;;;;;;4992579;28;20035;-80
2021/05/14 09:46:47;;;;;;;8.98;2.95;;;13.00;81.20;;;;;;4992313;28;20483;-80
2021/05/14 09:49:19;;;;;;;10.88;6.18;;;12.90;79.30;;;;;;4991000;28;21108;-80
2021/05/14 09:51:53;;;;;;;21.15;13.15;;;12.90;80.00;;;;;;4991097;28;20447;-79
2021/05/14 09:54:28;;;;;;;33.53;16.60;;;12.80;79.80;;;;;;4984106;28;20507;-80
2021/05/14 09:59:44;;;;;;;28.30;16.70;;;12.70;83.30;;;;;;4995163;28;20022;-79
2021/05/14 10:02:31;;;;;;;24.75;14.77;;;12.60;81.80;;;;;;4992597;28;20476;-78
2021/05/14 10:04:59;;;;;;;29.13;14.50;;;12.50;81.90;;;;;;4998368;28;20121;-80
2021/05/14 10:07:28;;;;;;;27.88;13.60;;;12.50;83.70;;;;;;4994562;28;20029;-78
2021/05/14 10:10:00;;;;;;;14.90;8.90;;;12.40;84.30;;;;;;4995333;28;20272;-80
2021/05/14 10:12:28;;;;;;;14.00;8.02;;;12.30;83.90;;;;;;5001576;28;20064;-81
2021/05/14 10:14:59;;;;;;;12.60;5.68;;;12.30;84.30;;;;;;4986666;28;20121;-80
2021/05/14 10:17:27;;;;;;;5.95;3.30;;;12.30;84.20;;;;;;4996038;28;20029;-80
2021/05/14 10:19:57;;;;;;;9.77;4.35;;;12.20;82.60;;;;;;4996665;28;20052;-80
2021/05/14 10:22:31;;;;;;;8.10;3.83;;;12.10;84.60;;;;;;4993175;28;20484;-80
2021/05/14 10:24:59;;;;;;;12.80;6.57;;;12.10;85.50;;;;;;4995696;28;20068;-79
2021/05/14 10:27:41;;;;;;;8.20;4.88;;;12.10;85.00;;;;;;4988648;28;20390;-75
2021/05/14 10:30:09;;;;;;;10.98;5.82;;;12.20;86.80;;;;;;4990311;28;20030;-78
2021/05/14 10:32:46;;;;;;;11.15;6.57;;;12.30;87.50;;;;;;4996745;28;20443;-78
2021/05/14 10:35:23;;;;;;;13.82;5.93;;;12.30;85.90;;;;;;4993990;28;20030;-76
2021/05/14 10:38:08;;;;;;;11.77;6.55;;;12.30;85.90;;;;;;4992562;28;20035;-81
2021/05/14 10:40:37;;;;;;;12.48;6.75;;;12.30;83.70;;;;;;4988989;28;20109;-82
2021/05/14 10:43:11;;;;;;;12.32;6.28;;;12.30;84.00;;;;;;4988934;28;20042;-78
2021/05/14 10:46:03;;;;;;;9.85;6.03;;;12.40;85.30;;;;;;4998236;28;20076;-78
2021/05/14 10:48:50;;;;;;;11.50;7.60;;;12.40;83.40;;;;;;4992817;28;20076;-80
2021/05/14 10:51:17;;;;;;;14.27;5.40;;;12.40;84.40;;;;;;5000893;28;20037;-80
2021/05/14 10:53:48;;;;;;;6.80;3.90;;;12.40;84.20;;;;;;4998182;28;20045;-79
2021/05/14 10:56:15;;;;;;;6.50;3.53;;;12.50;83.10;;;;;;4999860;28;20026;-80
2021/05/14 10:58:43;;;;;;;6.85;3.17;;;12.50;82.00;;;;;;4997405;28;20023;-81
2021/05/14 11:01:44;;;;;;;4.25;2.35;;;12.60;83.90;;;;;;4990612;28;20092;-80
2021/05/14 11:04:14;;;;;;;7.95;1.50;;;12.80;80.30;;;;;;4982580;28;20203;-80
2021/05/14 11:06:54;;;;;;;3.63;1.27;;;12.90;78.20;;;;;;4992671;28;20026;-79
2021/05/14 11:09:25;;;;;;;2.45;1.52;;;13.00;77.30;;;;;;4988775;28;20053;-80
2021/05/14 11:12:05;;;;;;;6.80;1.52;;;13.10;76.20;;;;;;4991182;28;20029;-80
2021/05/14 11:14:51;;;;;;;2.30;1.38;;;13.20;75.80;;;;;;4992049;28;20041;-79
2021/05/14 11:17:19;;;;;;;4.07;1.60;;;13.20;75.90;;;;;;4994337;28;20114;-79
2021/05/14 11:19:52;;;;;;;3.80;1.58;;;13.20;76.60;;;;;;4989466;28;20034;-80
2021/05/14 11:22:26;;;;;;;3.28;1.30;;;13.10;76.40;;;;;;4987690;28;20033;-79
2021/05/14 11:25:02;;;;;;;2.88;1.42;;;13.00;76.40;;;;;;4985257;28;20122;-80
2021/05/14 11:27:31;;;;;;;4.10;2.60;;;13.10;76.60;;;;;;4986886;28;20018;-82
2021/05/14 11:30:02;;;;;;;3.75;2.28;;;13.20;76.40;;;;;;4978924;28;20031;-81
2021/05/14 11:32:32;;;;;;;5.60;2.65;;;13.20;76.90;;;;;;4973866;28;20030;-82
2021/05/14 11:35:08;;;;;;;4.65;2.78;;;13.10;77.50;;;;;;4976098;28;20035;-79
2021/05/14 11:38:05;;;;;;;5.93;3.15;;;13.20;76.90;;;;;;4976458;28;20042;-76
2021/05/14 11:40:36;;;;;;;8.93;3.00;;;13.20;76.30;;;;;;4987355;28;20112;-79
2021/05/14 11:43:12;;;;;;;9.15;2.92;;;13.40;75.80;;;;;;4975851;28;20044;-77
2021/05/14 11:45:49;;;;;;;7.22;3.20;;;13.30;76.20;;;;;;4985868;28;20033;-76
2021/05/14 11:48:22;;;;;;;4.38;2.40;;;13.40;76.30;;;;;;4983004;28;20026;-77
2021/05/14 11:50:58;;;;;;;7.38;3.17;;;13.50;76.20;;;;;;4986706;28;20133;-78
2021/05/14 11:53:26;;;;;;;5.93;2.92;;;13.40;75.90;;;;;;4982370;28;20033;-77
2021/05/14 11:55:55;;;;;;;4.28;1.95;;;13.30;77.00;;;;;;4985196;28;20096;-79
2021/05/14 11:58:26;;;;;;;6.47;2.72;;;13.20;77.80;;;;;;4989472;28;20073;-78
2021/05/14 12:00:54;;;;;;;7.05;2.58;;;13.10;77.30;;;;;;4982820;28;20121;-79
2021/05/14 12:03:25;;;;;;;4.97;2.97;;;12.90;77.40;;;;;;4996304;28;20155;-79
2021/05/14 12:05:55;;;;;;;6.43;3.08;;;12.80;79.30;;;;;;4987657;28;20033;-80
2021/05/14 12:08:23;;;;;;;5.68;3.08;;;12.60;81.20;;;;;;4985536;28;20116;-76
2021/05/14 12:10:53;;;;;;;5.78;3.60;;;12.50;84.40;;;;;;4989564;28;20393;-81
2021/05/14 12:13:23;;;;;;;9.93;3.28;;;12.40;85.60;;;;;;4988247;28;20164;-80
2021/05/14 12:16:12;;;;;;;9.88;4.95;;;12.30;88.10;;;;;;4986187;28;20030;-80
2021/05/14 12:18:47;;;;;;;6.70;4.38;;;12.10;88.00;;;;;;5001390;28;20080;-76
2021/05/14 12:21:34;;;;;;;9.90;5.45;;;12.00;88.90;;;;;;4983201;28;20057;-81
2021/05/14 12:24:22;;;;;;;8.38;4.45;;;11.90;89.90;;;;;;4995212;28;20505;-79
2021/05/14 12:27:03;;;;;;;6.07;3.13;;;11.90;90.20;;;;;;4987160;28;20068;-79
2021/05/14 12:29:31;;;;;;;6.95;3.00;;;11.80;88.60;;;;;;4991303;28;20081;-79
2021/05/14 12:32:00;;;;;;;11.82;4.88;;;11.70;89.10;;;;;;4999430;28;20101;-79
2021/05/14 12:34:28;;;;;;;5.88;2.97;;;11.70;90.40;;;;;;4990671;28;20485;-77
2021/05/14 12:36:57;;;;;;;6.35;3.38;;;11.70;90.80;;;;;;4998364;28;20077;-79
2021/05/14 12:39:26;;;;;;;4.90;3.05;;;11.60;90.60;;;;;;4990515;28;20034;-80
2021/05/14 12:42:00;;;;;;;4.88;3.05;;;11.50;91.10;;;;;;4991573;28;20142;-79
2021/05/14 12:44:33;;;;;;;6.85;2.53;;;11.50;91.10;;;;;;4982664;28;20180;-82
2021/05/14 12:47:08;;;;;;;5.68;2.85;;;11.40;90.70;;;;;;4993196;28;20309;-80
2021/05/14 12:49:57;;;;;;;4.50;2.45;;;11.40;91.40;;;;;;4980843;28;20060;-79
2021/05/14 12:52:36;;;;;;;5.50;3.13;;;11.30;90.90;;;;;;4981502;28;20038;-82
2021/05/14 12:55:16;;;;;;;4.05;2.22;;;11.20;91.40;;;;;;4991426;28;20026;-82
2021/05/14 12:57:56;;;;;;;5.32;2.92;;;11.20;91.60;;;;;;4994617;28;20061;-80
2021/05/14 13:00:26;;;;;;;5.03;2.95;;;11.10;91.20;;;;;;4989227;28;20022;-82
2021/05/14 13:02:56;;;;;;;7.60;3.15;;;11.00;91.50;;;;;;4989595;28;20042;-81
2021/05/14 13:05:41;;;;;;;5.60;2.30;;;11.00;92.00;;;;;;4987014;28;20061;-81